Date,TemperatureHighF,TemperatureAvgF,TemperatureLowF,DewpointHighF,DewpointAvgF,DewpointLowF,HumidityHigh,HumidityAvg,HumidityLow,PressureMaxIn,PressureMinIn,WindSpeedMaxMPH,WindSpeedAvgMPH,GustSpeedMaxMPH,PrecipitationSumIn
2013-1-1,32.0,30.1,28.3,29.3,27.5,25.6,90,89,89,30.05,30.00,4,1,5,0.00
2013-4-9,55.2,52.5,50.9,41.4,39.7,37.7,69,61,54,29.87,29.75,2,1,7,0.00
2013-4-10,54.5,50.4,46.4,46.8,40.9,36.7,86,70,53,29.82,29.48,9,2,14,0.02
2013-4-11,52.7,46.3,40.1,40.7,36.4,32.3,87,69,49,29.87,29.76,7,1,13,0.10
2013-4-12,48.3,41.3,37.0,38.7,35.8,33.0,86,81,63,29.76,29.25,9,1,11,0.15
2013-4-13,47.6,42.0,36.8,41.3,35.8,27.8,86,78,61,29.56,29.32,9,1,12,0.14
2013-4-14,52.7,43.9,37.5,39.0,35.1,30.2,88,72,46,29.58,29.49,6,1,11,0.09
2013-4-15,53.6,44.2,37.4,39.1,36.3,34.1,88,74,51,29.75,29.52,8,1,12,0.03
2013-4-16,54.3,43.8,32.1,40.2,33.8,29.2,90,70,38,29.96,29.75,8,1,10,0.06
2013-4-17,58.1,46.6,34.7,40.1,35.3,31.4,89,66,37,30.02,29.96,7,1,10,0.00
2013-4-18,51.0,46.4,42.9,44.0,39.8,36.1,87,78,62,30.02,29.78,4,1,11,0.14
2013-4-19,53.6,49.4,47.3,49.0,45.5,42.7,88,86,81,29.78,29.63,6,1,8,0.22
2013-4-20,54.3,48.0,45.5,45.5,43.0,41.0,88,83,68,29.85,29.76,4,1,10,0.15
2013-4-21,52.5,46.0,40.6,42.1,39.2,34.7,88,77,55,29.94,29.80,7,2,13,0.17
2013-4-22,57.5,45.8,32.5,38.4,32.5,26.1,89,63,32,30.10,29.94,6,1,12,0.00
2013-4-23,59.3,48.0,34.3,37.0,32.8,26.2,87,59,31,30.00,29.83,10,1,12,0.00
2013-4-24,65.6,52.5,37.0,42.2,35.5,30.5,88,56,28,29.89,29.65,6,1,11,0.00
2013-4-25,68.7,54.8,39.9,44.1,38.2,34.6,83,56,31,29.72,29.62,7,1,9,0.00
2013-4-26,62.7,53.7,43.3,47.8,43.1,38.9,88,68,49,29.83,29.72,6,1,9,0.00
2013-4-27,54.6,52.2,48.9,46.2,41.4,35.3,88,67,49,29.80,29.72,3,1,8,0.11
2013-4-28,55.5,49.7,45.3,45.9,41.6,37.2,88,74,58,29.79,29.50,5,1,6,0.05
2013-4-29,53.6,47.3,42.2,43.1,31.8,22.5,86,56,30,29.73,29.49,12,3,19,0.06
2013-4-30,53.4,44.6,36.5,36.8,29.6,18.7,86,58,26,30.02,29.73,7,1,14,0.05
2013-5-1,61.1,47.8,31.7,36.2,31.6,28.3,88,56,33,30.15,30.02,8,1,11,0.00
2013-5-2,64.7,52.5,40.6,43.0,37.2,32.7,84,57,35,30.12,29.95,10,2,14,0.00
2013-5-3,66.9,54.8,39.9,46.4,40.6,36.3,88,61,36,29.97,29.81,7,2,15,0.00
2013-5-4,75.3,59.9,43.5,47.8,42.2,36.3,88,55,26,29.82,29.59,9,1,13,0.00
2013-5-5,78.6,63.3,46.7,50.2,44.9,40.4,83,53,33,29.59,29.37,6,1,12,0.00
2013-5-6,79.5,65.3,50.1,50.7,45.5,40.3,79,51,28,29.44,29.35,6,1,11,0.00
2013-5-7,67.8,57.9,49.8,51.2,47.6,43.0,85,69,50,29.58,29.41,7,1,10,0.00
2013-5-8,64.9,55.2,48.9,50.2,47.5,44.9,88,75,55,29.73,29.58,4,1,6,0.00
2013-5-9,65.8,54.4,46.7,51.7,47.0,43.7,89,77,50,29.80,29.71,6,1,10,0.00
2013-5-10,72.6,58.9,45.8,53.4,47.7,42.4,89,68,37,29.78,29.70,7,1,9,0.01
2013-5-11,81.5,63.5,52.1,54.6,48.7,42.6,86,60,33,29.76,29.58,5,1,7,0.00
2013-5-12,72.3,62.8,57.7,55.3,52.5,48.3,87,70,46,29.67,29.58,14,4,15,0.03
2013-5-13,64.2,56.4,47.3,55.8,48.4,39.0,84,74,49,29.76,29.52,23,16,24,0.09
2013-5-14,63.1,54.2,45.8,42.5,39.2,34.1,78,58,34,29.80,29.70,25,18,26,0.00
2013-5-15,65.3,53.5,43.7,47.6,42.4,38.6,86,68,38,29.70,29.60,28,19,29,0.03
2013-5-16,66.5,57.6,51.0,51.4,48.5,46.7,87,72,52,29.60,29.45,23,16,23,0.01
2013-5-17,60.9,56.2,51.9,50.3,47.2,45.1,86,72,57,29.63,29.52,20,16,21,0.02
2013-5-18,64.7,56.3,50.7,45.7,43.7,40.3,79,63,45,29.85,29.63,21,17,22,0.00
2013-5-19,64.5,54.8,50.0,48.9,45.5,43.3,85,71,48,29.98,29.85,23,18,25,0.01
2013-5-20,65.8,53.9,44.4,48.4,44.3,41.0,88,71,48,29.93,29.49,26,19,27,0.00
2013-5-21,53.0,48.9,46.0,46.1,43.6,41.8,87,81,68,29.49,29.36,28,24,29,0.43
2013-5-22,51.8,47.7,44.4,45.1,42.4,39.4,88,82,71,29.52,29.42,28,24,29,0.08
2013-5-23,59.7,49.8,43.5,45.9,42.4,39.7,89,76,49,29.59,29.50,27,22,28,0.01
2013-5-24,62.4,53.1,43.3,45.1,42.3,40.0,88,68,45,29.62,29.55,28,19,29,0.00
2013-5-25,63.5,55.3,48.7,45.6,43.7,39.6,85,66,44,29.62,29.55,22,18,23,0.01
2013-5-26,63.5,55.7,49.4,52.9,47.8,43.9,85,75,55,29.57,29.53,22,17,24,0.04
2013-5-27,62.0,55.8,50.3,52.1,49.2,46.3,87,78,62,29.54,29.30,21,16,21,0.04
2013-5-28,65.3,56.7,51.2,49.3,46.8,43.9,85,70,48,29.46,29.35,20,16,22,0.00
2013-5-29,54.6,51.4,49.1,47.8,46.1,45.1,88,82,73,29.54,29.26,24,20,25,0.23
2013-5-30,63.8,54.2,47.8,47.5,44.5,42.1,88,71,46,29.82,29.54,23,18,24,0.02
2013-5-31,65.3,56.3,49.6,46.8,43.5,38.5,83,64,39,29.92,29.82,22,17,22,0.00
2013-6-1,69.6,58.8,48.7,48.2,45.1,40.4,83,62,36,29.83,29.64,22,15,23,0.00
2013-6-2,68.3,58.7,52.1,48.9,46.3,43.8,84,64,43,29.68,29.63,22,15,25,0.05
2013-6-3,70.5,58.7,48.0,52.4,48.1,44.1,87,69,45,29.70,29.65,22,15,23,0.00
2013-6-4,75.9,62.6,49.2,53.0,48.6,43.4,87,62,42,29.72,29.62,21,12,22,0.00
2013-6-5,73.0,62.0,51.2,54.5,49.6,40.3,84,64,49,29.69,29.63,20,12,21,0.00